Time;durP1;ratioP1;P1;durP2;ratioP2;P2;SDS_P1;SDS_P2;PMS_P1;PMS_P2;Temp;Humidity;BMP_temperature;BMP_pressure;BME280_temperature;BME280_humidity;BME280_pressure;Samples;Min_cycle;Max_cycle;Signal;HPM_P1;HPM_P2
2022/10/27 00:01:04;;;;;;;9.07;3.80;;;;;;;13.21;73.07;101123.75;10219802;28;20138;-62
2022/10/27 00:06:07;;;;;;;9.27;3.80;;;;;;;13.19;73.04;101132.06;10214553;28;20193;-60
2022/10/27 00:11:10;;;;;;;8.07;2.80;;;;;;;13.16;73.29;101127.00;10209757;28;20047;-60
2022/10/27 00:16:16;;;;;;;11.70;3.72;;;;;;;13.20;73.23;101130.19;10212538;28;20142;-60
2022/10/27 00:21:19;;;;;;;9.13;3.05;;;;;;;13.19;73.24;101133.91;10215277;28;20050;-60
2022/10/27 00:26:21;;;;;;;13.00;3.83;;;;;;;13.18;73.06;101143.88;10206718;28;20058;-62
2022/10/27 00:31:22;;;;;;;10.57;3.15;;;;;;;13.14;73.04;101152.50;10213780;28;20059;-62
2022/10/27 00:36:24;;;;;;;8.32;3.05;;;;;;;13.02;73.87;101158.25;10215701;28;20130;-61
2022/10/27 00:41:32;;;;;;;8.70;3.50;;;;;;;13.06;73.72;101156.88;10214313;28;20074;-60
2022/10/27 00:46:41;;;;;;;7.85;2.70;;;;;;;13.07;73.46;101158.59;10208605;28;20142;-59
2022/10/27 00:51:58;;;;;;;6.53;2.30;;;;;;;13.09;73.39;101155.69;10216765;28;20497;-60
2022/10/27 00:57:00;;;;;;;6.30;2.38;;;;;;;13.04;73.67;101158.91;10208924;28;20644;-60
2022/10/27 01:02:02;;;;;;;12.10;3.03;;;;;;;13.07;73.58;101152.31;10206432;28;20490;-59
2022/10/27 01:07:04;;;;;;;5.63;2.35;;;;;;;13.04;73.57;101147.28;10214031;28;20162;-59
2022/10/27 01:12:05;;;;;;;4.72;2.33;;;;;;;13.06;73.28;101150.66;10208465;28;20044;-60
2022/10/27 01:17:12;;;;;;;8.50;2.45;;;;;;;13.04;73.19;101152.69;10202030;28;20051;-59
2022/10/27 01:22:22;;;;;;;29.95;8.75;;;;;;;12.93;73.42;101153.88;10209591;28;20050;-59
2022/10/27 01:28:07;;;;;;;18.30;7.75;;;;;;;12.76;73.94;101144.97;10206136;28;20050;-59
2022/10/27 01:33:18;;;;;;;7.70;4.60;;;;;;;12.85;74.11;101143.94;10189329;29;20155;-59
2022/10/27 01:38:27;;;;;;;11.13;6.30;;;;;;;12.89;73.40;101141.75;10213387;28;20102;-59
2022/10/27 01:43:30;;;;;;;13.15;4.40;;;;;;;12.90;73.32;101135.34;10208091;28;20398;-60
2022/10/27 01:48:33;;;;;;;10.60;4.43;;;;;;;12.86;73.64;101136.69;10210071;28;20058;-59
2022/10/27 01:53:40;;;;;;;8.00;3.17;;;;;;;12.83;73.17;101139.72;10206432;28;20053;-59
2022/10/27 01:58:47;;;;;;;4.60;2.90;;;;;;;12.80;73.31;101135.53;10219046;28;20086;-59
2022/10/27 02:04:13;;;;;;;6.40;2.25;;;;;;;12.73;73.60;101139.91;10207643;28;20138;-59
2022/10/27 02:09:45;;;;;;;7.00;3.17;;;;;;;12.63;73.36;101140.09;10205357;28;20162;-59
2022/10/27 02:14:52;;;;;;;8.30;2.50;;;;;;;12.64;73.33;101155.28;10206320;28;20047;-59
2022/10/27 02:19:55;;;;;;;5.73;2.60;;;;;;;12.62;73.14;101160.00;10202820;28;20053;-60
2022/10/27 02:24:57;;;;;;;5.75;2.85;;;;;;;12.66;73.33;101157.81;10213274;28;20086;-59
2022/10/27 02:30:02;;;;;;;7.43;2.85;;;;;;;12.64;73.33;101170.63;10211280;28;20061;-59
2022/10/27 02:35:04;;;;;;;4.07;2.33;;;;;;;12.68;73.90;101166.56;10209847;28;20138;-59
2022/10/27 02:40:06;;;;;;;3.88;2.03;;;;;;;12.67;73.70;101175.66;10198315;28;20110;-59
2022/10/27 02:45:08;;;;;;;12.23;3.97;;;;;;;12.70;73.68;101169.94;10204776;28;20048;-60
2022/10/27 02:50:10;;;;;;;4.97;2.70;;;;;;;12.67;73.53;101176.50;10207673;28;20126;-60
2022/10/27 02:55:11;;;;;;;8.85;2.50;;;;;;;12.73;73.50;101180.38;10209527;29;20998;-59
2022/10/27 03:00:13;;;;;;;11.98;3.20;;;;;;;12.73;73.35;101177.69;10204261;28;20473;-60
2022/10/27 03:05:14;;;;;;;63.80;5.13;;;;;;;12.74;73.56;101170.41;10205922;28;20044;-60
2022/10/27 03:10:16;;;;;;;81.85;5.65;;;;;;;12.66;73.63;101158.66;10207433;28;20047;-60
2022/10/27 03:15:17;;;;;;;67.15;4.90;;;;;;;12.70;73.64;101151.91;10202671;28;20499;-60
2022/10/27 03:20:19;;;;;;;46.63;4.53;;;;;;;12.69;73.52;101154.75;10196233;28;20146;-60
2022/10/27 03:25:20;;;;;;;43.05;4.18;;;;;;;12.72;73.79;101148.16;10216625;29;20143;-60
2022/10/27 03:30:21;;;;;;;54.15;5.03;;;;;;;12.67;73.91;101144.13;10201103;28;20422;-60
2022/10/27 03:35:23;;;;;;;33.92;3.50;;;;;;;12.64;74.13;101151.75;10208830;29;20130;-60
2022/10/27 03:40:25;;;;;;;33.78;4.63;;;;;;;12.75;74.25;101162.16;10197286;28;20047;-60
2022/10/27 03:45:27;;;;;;;26.75;4.70;;;;;;;12.84;74.11;101171.13;10198623;28;20040;-60
2022/10/27 03:50:29;;;;;;;47.53;5.03;;;;;;;12.77;74.23;101180.88;10208719;28;20075;-59
2022/10/27 03:55:31;;;;;;;72.93;6.55;;;;;;;12.82;74.72;101168.56;10217140;28;20127;-59
2022/10/27 04:00:33;;;;;;;35.55;5.63;;;;;;;12.91;74.30;101166.69;10199690;28;20048;-60
2022/10/27 04:05:34;;;;;;;123.38;7.07;;;;;;;12.92;74.85;101175.66;10205813;29;20129;-59
2022/10/27 04:10:36;;;;;;;57.25;5.78;;;;;;;12.96;74.54;101171.59;10201631;29;20142;-60
2022/10/27 04:15:37;;;;;;;114.75;6.78;;;;;;;13.02;74.62;101181.72;10212453;28;20134;-60
2022/10/27 04:20:38;;;;;;;95.13;7.25;;;;;;;13.01;74.59;101180.88;10208957;28;20058;-59
2022/10/27 04:25:40;;;;;;;152.82;8.82;;;;;;;13.09;74.81;101185.38;10215662;28;20057;-61
2022/10/27 04:30:41;;;;;;;180.25;9.35;;;;;;;13.10;74.97;101193.31;10195536;28;20370;-60
2022/10/27 04:35:43;;;;;;;313.55;13.57;;;;;;;13.11;75.02;101186.06;10202890;28;20141;-59
2022/10/27 04:40:44;;;;;;;144.65;8.43;;;;;;;13.06;74.84;101177.66;10212860;29;20050;-60
2022/10/27 04:45:45;;;;;;;163.95;9.43;;;;;;;13.04;75.30;101180.50;10202629;28;20562;-59
2022/10/27 04:50:47;;;;;;;90.10;8.15;;;;;;;13.14;75.50;101168.69;10210310;28;20055;-60
2022/10/27 04:55:50;;;;;;;100.60;8.13;;;;;;;13.21;75.03;101178.63;10201231;28;20139;-60
2022/10/27 05:00:51;;;;;;;70.90;7.93;;;;;;;13.22;75.18;101172.19;10214543;28;20150;-60
2022/10/27 05:05:53;;;;;;;68.22;7.30;;;;;;;13.28;75.37;101171.50;10198391;29;20138;-60
2022/10/27 05:10:54;;;;;;;52.25;7.38;;;;;;;13.35;75.39;101163.59;10201891;29;20054;-60
2022/10/27 05:16:00;;;;;;;52.40;7.72;;;;;;;13.33;75.55;101167.47;10208159;28;20052;-60
2022/10/27 05:21:01;;;;;;;31.70;7.18;;;;;;;13.42;75.54;101167.25;10213810;28;20140;-60
2022/10/27 05:26:03;;;;;;;45.65;7.57;;;;;;;13.49;75.44;101170.97;10215907;28;20077;-60
2022/10/27 05:31:04;;;;;;;46.63;7.00;;;;;;;13.55;75.03;101163.19;10222904;28;20447;-60
2022/10/27 05:36:06;;;;;;;26.00;6.10;;;;;;;13.55;75.42;101160.50;10208265;28;20131;-59
2022/10/27 05:41:08;;;;;;;49.45;7.35;;;;;;;13.58;74.94;101165.53;10212665;29;20131;-60
2022/10/27 05:46:10;;;;;;;39.83;7.00;;;;;;;13.60;75.16;101175.13;10213505;28;20054;-60
2022/10/27 05:51:11;;;;;;;24.52;6.10;;;;;;;13.58;75.06;101171.75;10208558;29;20139;-60
2022/10/27 05:56:14;;;;;;;26.65;5.60;;;;;;;13.55;74.83;101169.44;10216588;28;20701;-60
2022/10/27 06:01:15;;;;;;;21.85;5.57;;;;;;;13.53;74.77;101159.81;10215333;28;20134;-60
2022/10/27 06:06:17;;;;;;;23.20;5.85;;;;;;;13.46;75.18;101170.47;10211039;28;20040;-60
2022/10/27 06:11:18;;;;;;;54.03;6.63;;;;;;;13.45;74.88;101168.78;10220523;28;20055;-66
2022/10/27 06:16:21;;;;;;;40.53;7.00;;;;;;;13.42;74.63;101161.88;10200011;28;20058;-61
2022/10/27 06:21:24;;;;;;;61.10;7.13;;;;;;;13.43;74.63;101160.03;10200536;28;20502;-61
2022/10/27 06:26:25;;;;;;;54.47;5.28;;;;;;;13.38;74.25;101160.53;10207611;28;20139;-61
2022/10/27 06:31:27;;;;;;;27.52;4.68;;;;;;;13.37;74.81;101149.91;10209358;29;20106;-61
2022/10/27 06:36:28;;;;;;;26.10;4.68;;;;;;;13.34;74.82;101152.97;10205792;28;20516;-61
2022/10/27 06:41:29;;;;;;;42.47;5.32;;;;;;;13.27;74.72;101156.34;10208676;28;20129;-61
2022/10/27 06:46:33;;;;;;;18.48;4.40;;;;;;;13.12;74.84;101160.75;10202049;28;20498;-61
2022/10/27 06:51:34;;;;;;;24.17;4.93;;;;;;;13.11;74.69;101153.66;10205015;28;20078;-61
2022/10/27 06:56:36;;;;;;;39.08;5.13;;;;;;;13.15;74.53;101157.72;10207101;28;20130;-61
2022/10/27 07:01:37;;;;;;;15.88;5.00;;;;;;;13.17;74.70;101179.13;10209480;29;20048;-61
2022/10/27 07:06:39;;;;;;;34.67;5.07;;;;;;;13.18;74.56;101189.75;10207413;28;20071;-61
2022/10/27 07:11:40;;;;;;;9.00;4.45;;;;;;;13.22;74.49;101193.78;10202553;28;20134;-61
2022/10/27 07:16:41;;;;;;;12.15;3.95;;;;;;;13.26;74.37;101200.53;10206256;28;20167;-61
2022/10/27 07:21:43;;;;;;;8.02;3.70;;;;;;;13.29;74.40;101205.63;10212416;28;20406;-61
2022/10/27 07:26:44;;;;;;;5.72;3.33;;;;;;;13.40;74.29;101222.47;10202412;28;20056;-61
2022/10/27 07:31:46;;;;;;;5.97;3.35;;;;;;;13.39;74.24;101218.06;10210843;28;20044;-61
2022/10/27 07:36:48;;;;;;;7.13;4.00;;;;;;;13.46;74.05;101222.63;10212952;28;20106;-62
2022/10/27 07:41:49;;;;;;;4.40;3.45;;;;;;;13.51;74.08;101223.97;10208463;28;20047;-61
2022/10/27 07:46:51;;;;;;;5.80;3.88;;;;;;;13.56;74.25;101214.31;10205325;28;20146;-61
2022/10/27 07:51:52;;;;;;;8.90;5.22;;;;;;;13.62;74.29;101229.00;10207062;28;20075;-61
2022/10/27 07:56:53;;;;;;;7.53;3.38;;;;;;;13.69;74.33;101233.53;10207468;28;20055;-62
2022/10/27 08:01:55;;;;;;;6.22;4.57;;;;;;;13.69;74.63;101225.41;10205714;28;20143;-61
2022/10/27 08:06:57;;;;;;;4.30;2.92;;;;;;;13.82;74.38;101227.59;10203650;28;20043;-61
2022/10/27 08:11:58;;;;;;;6.97;4.32;;;;;;;13.96;74.42;101223.28;10201971;28;20071;-61
2022/10/27 08:16:59;;;;;;;11.70;5.95;;;;;;;14.07;74.43;101232.84;10208785;28;20835;-62
2022/10/27 08:22:05;;;;;;;9.55;5.00;;;;;;;14.19;74.33;101217.06;10207632;28;20048;-64
2022/10/27 08:27:13;;;;;;;9.95;4.20;;;;;;;14.36;74.25;101223.22;10207273;28;20051;-63
2022/10/27 08:32:15;;;;;;;4.85;3.38;;;;;;;14.42;74.33;101217.94;10217585;28;20111;-62
2022/10/27 08:37:16;;;;;;;4.78;3.38;;;;;;;14.64;74.31;101226.25;10210986;28;20378;-63
2022/10/27 08:42:30;;;;;;;6.05;3.75;;;;;;;14.74;73.94;101226.84;10207577;28;20159;-62
2022/10/27 08:47:32;;;;;;;6.32;3.97;;;;;;;14.91;73.99;101226.69;10208791;29;20554;-62
2022/10/27 08:52:47;;;;;;;5.05;3.40;;;;;;;15.09;73.66;101219.09;10208823;28;20054;-63
2022/10/27 08:57:56;;;;;;;6.65;4.07;;;;;;;15.17;73.19;101220.91;10210788;28;20516;-62
2022/10/27 09:03:16;;;;;;;6.30;3.80;;;;;;;15.31;73.38;101214.63;10212466;28;20138;-62
2022/10/27 09:08:28;;;;;;;11.13;4.25;;;;;;;15.40;73.42;101218.09;10209349;28;20832;-62
2022/10/27 09:14:06;;;;;;;5.63;4.60;;;;;;;15.50;73.82;101207.84;10207364;28;20098;-63
2022/10/27 09:19:11;;;;;;;;;;;;;;;15.71;73.66;101198.09;10160446;28;20051;-63
2022/10/27 09:24:17;;;;;;;5.88;4.35;;;;;;;15.91;73.62;101195.66;10213323;28;20030;-63
2022/10/27 09:29:21;;;;;;;8.37;4.07;;;;;;;16.14;73.59;101190.09;10210250;28;20316;-62
2022/10/27 09:34:51;;;;;;;4.95;2.75;;;;;;;16.29;73.59;101190.00;10209505;28;20126;-62
2022/10/27 09:39:53;;;;;;;4.10;2.72;;;;;;;16.52;73.51;101181.69;10204575;28;20503;-63
2022/10/27 09:45:00;;;;;;;3.95;1.98;;;;;;;16.76;72.97;101180.44;10211594;28;20051;-63
2022/10/27 09:50:05;;;;;;;3.42;2.10;;;;;;;16.94;73.02;101180.84;10209234;28;20510;-63
2022/10/27 09:55:06;;;;;;;4.07;2.15;;;;;;;17.13;72.69;101181.16;10207345;28;20502;-64
2022/10/27 10:00:24;;;;;;;6.05;3.30;;;;;;;17.35;72.18;101174.59;10212296;28;20077;-61
2022/10/27 10:05:29;;;;;;;3.08;1.83;;;;;;;17.50;72.11;101166.34;10202624;29;20125;-61
2022/10/27 10:10:30;;;;;;;4.43;2.25;;;;;;;17.66;71.76;101177.91;10204274;29;20046;-61
2022/10/27 10:15:36;;;;;;;6.22;2.42;;;;;;;17.83;71.30;101162.91;10205305;28;20102;-64
2022/10/27 10:20:41;;;;;;;5.22;2.38;;;;;;;18.00;70.94;101158.81;10220840;28;20078;-61
2022/10/27 10:25:49;;;;;;;6.38;2.17;;;;;;;18.12;70.32;101160.94;10192667;28;20086;-61
2022/10/27 10:30:53;;;;;;;5.28;1.65;;;;;;;18.28;69.88;101154.25;10204599;28;20139;-61
2022/10/27 10:35:54;;;;;;;5.50;2.25;;;;;;;18.49;69.40;101151.34;10209516;28;20144;-62
2022/10/27 10:41:03;;;;;;;2.65;1.83;;;;;;;18.65;69.21;101150.09;10208325;29;20044;-61
2022/10/27 10:46:15;;;;;;;4.57;1.20;;;;;;;18.68;69.08;101146.97;10197613;28;20043;-60
2022/10/27 10:51:29;;;;;;;3.40;1.30;;;;;;;18.91;68.42;101141.09;10203540;29;20501;-61
2022/10/27 10:56:34;;;;;;;4.72;1.60;;;;;;;19.09;68.04;101129.53;10197597;28;20059;-61
2022/10/27 11:01:50;;;;;;;4.05;1.98;;;;;;;19.24;67.78;101129.28;10209807;28;20518;-61
2022/10/27 11:07:18;;;;;;;2.57;1.40;;;;;;;19.46;67.31;101124.38;10197395;29;20074;-62
2022/10/27 11:12:39;;;;;;;4.75;1.63;;;;;;;19.66;66.36;101110.66;10190961;28;20570;-62
2022/10/27 11:17:44;;;;;;;2.95;1.65;;;;;;;19.80;65.92;101104.09;10194133;29;20051;-61
2022/10/27 11:22:48;;;;;;;5.10;1.70;;;;;;;20.01;65.43;101105.66;10203972;28;20138;-61
2022/10/27 11:28:05;;;;;;;4.93;1.55;;;;;;;20.15;65.30;101100.13;10195679;28;20139;-61
2022/10/27 11:33:23;;;;;;;6.57;1.77;;;;;;;20.32;64.92;101094.94;10203964;28;20465;-62
2022/10/27 11:38:54;;;;;;;3.63;1.38;;;;;;;20.26;64.65;101080.31;10198151;29;20044;-61
2022/10/27 11:44:23;;;;;;;6.45;1.63;;;;;;;20.45;64.00;101066.69;10200047;28;20292;-61
2022/10/27 11:49:51;;;;;;;4.65;1.50;;;;;;;20.63;63.36;101064.03;10208511;28;20147;-61
2022/10/27 11:54:53;;;;;;;5.78;1.90;;;;;;;20.85;62.64;101058.13;10218581;29;20134;-61
2022/10/27 12:00:05;;;;;;;6.03;1.45;;;;;;;20.97;62.16;101061.78;10212565;29;20065;-61
2022/10/27 12:05:18;;;;;;;7.47;1.77;;;;;;;21.07;61.59;101051.16;10217146;29;20586;-61
2022/10/27 12:10:38;;;;;;;4.72;1.90;;;;;;;21.15;61.38;101053.59;10240685;28;20079;-61
2022/10/27 12:15:54;;;;;;;9.88;3.00;;;;;;;21.34;60.76;101048.91;10229186;28;20138;-61
2022/10/27 12:21:00;;;;;;;2.55;1.30;;;;;;;21.34;60.51;101053.56;10212305;29;20471;-61
2022/10/27 12:26:20;;;;;;;6.78;1.95;;;;;;;21.60;60.02;101057.84;10210593;28;20134;-61
2022/10/27 12:31:27;;;;;;;5.57;1.45;;;;;;;21.72;59.85;101052.44;10213772;28;20048;-61
2022/10/27 12:36:48;;;;;;;5.60;1.35;;;;;;;21.84;59.44;101049.72;10215693;28;20510;-61
2022/10/27 12:42:07;;;;;;;7.22;1.67;;;;;;;21.96;58.96;101043.22;10213973;28;20127;-61
2022/10/27 12:47:23;;;;;;;2.80;1.20;;;;;;;22.14;58.62;101036.00;10210164;29;20150;-61
2022/10/27 12:52:26;;;;;;;5.65;2.00;;;;;;;22.27;58.49;101038.53;10200000;28;20043;-62
2022/10/27 12:57:49;;;;;;;6.47;1.38;;;;;;;22.18;58.19;101037.19;10205838;28;20044;-61
2022/10/27 13:03:19;;;;;;;9.88;1.60;;;;;;;22.16;57.92;101028.38;10205356;29;20059;-61
2022/10/27 13:08:46;;;;;;;8.02;2.75;;;;;;;22.13;57.77;101015.16;10208789;28;20086;-61
2022/10/27 13:14:02;;;;;;;5.15;1.70;;;;;;;22.32;57.56;101015.91;10205153;28;20048;-61
2022/10/27 13:19:26;;;;;;;5.07;1.20;;;;;;;22.54;56.89;101016.97;10213084;28;20047;-62
2022/10/27 13:24:39;;;;;;;4.43;1.15;;;;;;;22.74;56.58;101018.50;10205746;28;20134;-61
2022/10/27 13:29:57;;;;;;;10.98;1.40;;;;;;;22.97;56.00;101012.16;10227922;28;20051;-61
2022/10/27 13:34:58;;;;;;;7.22;1.33;;;;;;;23.09;55.62;101009.41;10219471;28;20581;-62
2022/10/27 13:40:00;;;;;;;7.97;0.82;;;;;;;23.19;55.24;101003.31;10201061;28;20094;-61
2022/10/27 13:45:26;;;;;;;4.35;1.00;;;;;;;23.21;54.93;101012.13;10206010;28;20111;-61
2022/10/27 13:50:33;;;;;;;9.17;1.60;;;;;;;23.22;54.78;100998.13;10211513;28;20130;-62
2022/10/27 13:55:35;;;;;;;7.72;1.38;;;;;;;23.30;54.25;101000.53;10201997;28;20150;-62
2022/10/27 14:00:57;;;;;;;11.50;1.27;;;;;;;23.38;54.03;100993.81;10205677;28;20138;-62
2022/10/27 14:05:59;;;;;;;6.65;1.27;;;;;;;23.31;54.28;100998.59;10210663;28;20067;-61
2022/10/27 14:11:10;;;;;;;9.75;1.30;;;;;;;23.23;54.23;100985.28;10206378;28;20130;-62
2022/10/27 14:16:33;;;;;;;3.90;1.30;;;;;;;23.34;53.99;100981.63;10202598;28;20150;-62
2022/10/27 14:21:40;;;;;;;8.18;1.15;;;;;;;23.34;53.61;100987.13;10206665;28;20047;-61
2022/10/27 14:26:42;;;;;;;6.60;1.25;;;;;;;23.39;53.59;100976.25;10195950;29;20130;-61
2022/10/27 14:31:43;;;;;;;5.57;1.17;;;;;;;23.40;53.43;100990.78;10206007;28;20559;-62
2022/10/27 14:36:45;;;;;;;2.67;1.05;;;;;;;23.36;53.17;100994.03;10208495;28;20143;-61
2022/10/27 14:41:48;;;;;;;5.03;1.13;;;;;;;23.43;53.08;100982.09;10204933;28;20494;-61
2022/10/27 14:46:51;;;;;;;5.10;1.27;;;;;;;23.40;52.73;100980.69;10210783;28;20131;-61
2022/10/27 14:51:52;;;;;;;8.38;1.60;;;;;;;23.62;51.36;100974.44;10200658;28;20052;-62
2022/10/27 14:56:54;;;;;;;4.80;1.10;;;;;;;23.77;50.97;100969.22;10204763;28;20134;-62
2022/10/27 15:01:55;;;;;;;8.93;1.05;;;;;;;23.62;51.33;100975.31;10206542;28;20093;-61
2022/10/27 15:07:01;;;;;;;9.25;1.35;;;;;;;23.64;51.74;100972.31;10207731;28;20048;-61
2022/10/27 15:12:15;;;;;;;4.00;1.13;;;;;;;23.33;52.20;100960.78;10198613;28;20146;-62
2022/10/27 15:17:23;;;;;;;7.53;1.20;;;;;;;23.31;52.33;100962.94;10200998;29;20079;-62
2022/10/27 15:22:26;;;;;;;8.05;2.92;;;;;;;23.28;52.53;100956.03;10208896;28;20142;-62
2022/10/27 15:27:37;;;;;;;6.35;1.58;;;;;;;23.13;53.07;100967.53;10208076;28;20130;-61
2022/10/27 15:32:40;;;;;;;13.98;2.45;;;;;;;22.92;53.48;100973.66;10201846;28;20130;-62
2022/10/27 15:37:41;;;;;;;4.47;1.88;;;;;;;22.73;53.74;100981.22;10203009;28;20046;-62
2022/10/27 15:42:42;;;;;;;8.07;1.95;;;;;;;22.50;54.55;100987.56;10207841;28;20138;-62
2022/10/27 15:47:48;;;;;;;12.40;2.03;;;;;;;22.42;54.76;100975.06;10207470;28;20071;-62
2022/10/27 15:53:03;;;;;;;12.33;3.10;;;;;;;22.34;55.16;100976.25;10192734;29;20052;-62
2022/10/27 15:58:25;;;;;;;5.07;1.95;;;;;;;22.05;55.58;100977.16;10203838;28;20787;-62
2022/10/27 16:03:33;;;;;;;8.57;2.28;;;;;;;21.86;56.27;100981.91;10202172;29;20048;-61
2022/10/27 16:08:34;;;;;;;10.65;2.28;;;;;;;21.71;56.66;100977.72;10205407;28;20053;-63
2022/10/27 16:13:35;;;;;;;10.40;3.85;;;;;;;21.49;57.11;100965.66;10202138;28;20058;-60
2022/10/27 16:18:39;;;;;;;14.40;3.35;;;;;;;21.25;58.22;100981.94;10215565;28;20075;-61
2022/10/27 16:23:40;;;;;;;14.43;5.35;;;;;;;21.00;58.52;100977.41;10192555;28;20143;-60
2022/10/27 16:28:47;;;;;;;11.20;3.47;;;;;;;20.80;59.21;100974.94;10207780;28;20490;-60
2022/10/27 16:33:48;;;;;;;12.60;5.50;;;;;;;20.59;59.88;100984.41;10212644;28;20546;-60
2022/10/27 16:38:50;;;;;;;18.42;4.15;;;;;;;20.39;60.48;100972.84;10207716;28;20510;-60
2022/10/27 16:43:51;;;;;;;11.60;4.47;;;;;;;20.19;60.66;100982.06;10202960;28;20142;-61
2022/10/27 16:48:52;;;;;;;14.23;5.30;;;;;;;19.98;61.70;100980.56;10210791;28;20134;-60
2022/10/27 16:53:54;;;;;;;15.82;4.85;;;;;;;19.86;61.93;100976.03;10205390;28;20072;-60
2022/10/27 16:58:55;;;;;;;10.65;4.72;;;;;;;19.72;62.69;100972.59;10205975;28;20075;-61
2022/10/27 17:03:59;;;;;;;14.70;6.55;;;;;;;19.62;62.79;100983.94;10213162;28;20083;-61
2022/10/27 17:09:01;;;;;;;15.38;6.95;;;;;;;19.55;63.27;100977.69;10203686;28;20562;-61
2022/10/27 17:14:02;;;;;;;18.52;5.72;;;;;;;19.49;63.45;100975.84;10216873;28;20055;-61
2022/10/27 17:19:03;;;;;;;15.52;5.38;;;;;;;19.38;64.04;100997.31;10204102;28;20053;-62
2022/10/27 17:24:05;;;;;;;8.68;4.63;;;;;;;19.35;64.30;100996.91;10210577;28;20410;-61
2022/10/27 17:29:07;;;;;;;8.68;3.35;;;;;;;19.28;64.49;100985.22;10199545;29;20047;-61
2022/10/27 17:34:08;;;;;;;13.43;5.30;;;;;;;19.24;64.69;100989.44;10211712;28;20048;-61
2022/10/27 17:39:09;;;;;;;17.52;6.25;;;;;;;19.15;64.96;100992.38;10202914;29;20105;-61
2022/10/27 17:44:11;;;;;;;13.02;5.45;;;;;;;19.09;65.50;100993.25;10215433;28;20052;-61
2022/10/27 17:49:12;;;;;;;16.45;5.60;;;;;;;19.02;65.54;101004.19;10204429;28;20049;-61
2022/10/27 17:54:16;;;;;;;15.32;7.10;;;;;;;18.91;65.91;100998.59;10212850;28;20047;-61
2022/10/27 17:59:18;;;;;;;13.18;5.68;;;;;;;18.93;66.01;100991.03;10213619;28;20126;-61
2022/10/27 18:04:20;;;;;;;12.02;5.15;;;;;;;18.93;66.03;100996.47;10204170;28;20482;-61
2022/10/27 18:09:21;;;;;;;12.77;5.78;;;;;;;18.83;66.37;101002.38;10211856;28;20506;-61
2022/10/27 18:14:23;;;;;;;15.45;6.35;;;;;;;18.83;66.61;101000.47;10215829;28;20047;-61
2022/10/27 18:19:24;;;;;;;11.00;5.95;;;;;;;18.83;66.51;101008.66;10206721;28;20146;-62
2022/10/27 18:24:25;;;;;;;14.30;5.47;;;;;;;18.80;66.77;101020.00;10220176;28;20067;-62
2022/10/27 18:29:27;;;;;;;13.38;5.75;;;;;;;18.81;66.91;101018.94;10198923;28;20042;-61
2022/10/27 18:34:28;;;;;;;13.10;6.60;;;;;;;18.80;66.91;101020.00;10218554;29;20043;-61
2022/10/27 18:39:30;;;;;;;12.93;7.90;;;;;;;18.79;66.93;101017.44;10208538;28;20135;-62
2022/10/27 18:44:31;;;;;;;11.20;6.30;;;;;;;18.80;66.92;101011.84;10196658;28;20189;-62
2022/10/27 18:49:33;;;;;;;17.00;7.88;;;;;;;18.77;67.06;101008.66;10214535;29;20130;-61
2022/10/27 18:54:48;;;;;;;12.45;6.72;;;;;;;18.74;67.12;100992.72;10216096;28;20499;-61
2022/10/27 18:59:50;;;;;;;24.50;8.55;;;;;;;18.72;67.28;101003.00;10211024;28;20075;-61
2022/10/27 19:04:51;;;;;;;15.73;6.20;;;;;;;18.64;67.47;101004.06;10216548;28;20142;-61
2022/10/27 19:09:53;;;;;;;14.43;7.05;;;;;;;18.61;67.61;101008.06;10210846;28;20771;-61
2022/10/27 19:14:54;;;;;;;15.32;6.88;;;;;;;18.58;67.68;101004.94;10204951;28;20541;-61
2022/10/27 19:19:56;;;;;;;14.13;6.90;;;;;;;18.59;67.66;101003.88;10207323;28;20471;-61
2022/10/27 19:24:57;;;;;;;15.80;7.70;;;;;;;18.60;67.70;101000.09;10206368;28;20057;-62
2022/10/27 19:29:59;;;;;;;10.38;5.97;;;;;;;18.55;67.78;101006.19;10213211;28;20138;-61
2022/10/27 19:35:00;;;;;;;12.55;6.20;;;;;;;18.55;67.85;101014.38;10208055;28;20055;-61
2022/10/27 19:40:02;;;;;;;11.45;5.85;;;;;;;18.55;67.89;101014.38;10208084;28;20570;-61
2022/10/27 19:45:07;;;;;;;12.20;6.70;;;;;;;18.55;67.92;101008.91;10213513;28;20587;-61
2022/10/27 19:50:08;;;;;;;16.73;7.72;;;;;;;18.54;67.86;101007.25;10211300;28;20139;-61
2022/10/27 19:55:10;;;;;;;18.75;6.60;;;;;;;18.51;68.04;101009.56;10202805;28;20052;-61
2022/10/27 20:00:12;;;;;;;13.20;6.32;;;;;;;18.41;68.19;101008.09;10206060;29;20553;-61
2022/10/27 20:05:13;;;;;;;13.38;5.13;;;;;;;18.39;68.21;101021.09;10213084;28;20137;-61
2022/10/27 20:10:16;;;;;;;8.82;5.22;;;;;;;18.33;68.17;101011.06;10209471;28;20067;-62
2022/10/27 20:15:18;;;;;;;13.90;6.20;;;;;;;18.27;68.31;101011.06;10212232;28;20103;-61
2022/10/27 20:20:20;;;;;;;15.55;5.82;;;;;;;18.19;68.42;101006.69;10225160;29;20040;-61
2022/10/27 20:25:22;;;;;;;11.95;6.93;;;;;;;18.11;68.71;101009.59;10213088;28;20076;-61
2022/10/27 20:30:23;;;;;;;20.13;7.50;;;;;;;18.00;68.91;101006.44;10218068;28;20048;-61
2022/10/27 20:35:24;;;;;;;14.93;7.53;;;;;;;17.98;68.84;101015.88;10221592;28;20050;-62
2022/10/27 20:40:26;;;;;;;20.67;7.35;;;;;;;17.92;68.86;101014.81;10221117;28;20094;-61
2022/10/27 20:45:29;;;;;;;19.33;7.53;;;;;;;17.81;68.94;101013.53;10226643;28;20047;-62
2022/10/27 20:50:30;;;;;;;15.05;7.35;;;;;;;17.72;69.10;101013.94;10215640;28;20031;-61
2022/10/27 20:55:31;;;;;;;13.88;6.65;;;;;;;17.62;69.24;101012.44;10220122;29;20083;-61
2022/10/27 21:00:33;;;;;;;19.25;6.55;;;;;;;17.50;69.46;101003.22;10220148;28;20043;-61
2022/10/27 21:05:34;;;;;;;14.15;6.82;;;;;;;17.35;69.78;100991.69;10213126;28;20127;-61
2022/10/27 21:10:40;;;;;;;19.00;7.20;;;;;;;17.23;70.12;100996.88;10214769;28;20249;-61
2022/10/27 21:15:42;;;;;;;11.63;6.90;;;;;;;17.07;70.57;101002.69;10213318;28;20043;-61
2022/10/27 21:20:43;;;;;;;10.82;6.13;;;;;;;16.94;70.78;101001.59;10217137;29;20059;-61
2022/10/27 21:25:44;;;;;;;16.35;7.72;;;;;;;16.90;70.74;101004.88;10213684;28;20082;-61
2022/10/27 21:30:46;;;;;;;13.82;7.13;;;;;;;16.81;70.82;101001.47;10215891;28;20043;-61
2022/10/27 21:35:47;;;;;;;13.90;6.18;;;;;;;16.75;71.03;101005.84;10212304;28;20047;-61
2022/10/27 21:40:49;;;;;;;15.45;6.40;;;;;;;16.70;71.29;101005.59;10217302;28;20443;-61
2022/10/27 21:45:56;;;;;;;10.60;6.53;;;;;;;16.61;70.79;101001.38;10216934;28;20083;-61
2022/10/27 21:50:58;;;;;;;12.30;6.25;;;;;;;16.54;71.33;101011.34;10216520;28;20196;-61
2022/10/27 21:56:03;;;;;;;13.38;6.00;;;;;;;16.45;71.35;100997.09;10205042;28;20402;-61
2022/10/27 22:01:10;;;;;;;13.55;5.82;;;;;;;16.37;71.61;100995.38;10211341;28;20079;-63
2022/10/27 22:06:16;;;;;;;;;;;;;;;16.28;71.38;101004.69;10214798;28;20055;-61
2022/10/27 22:11:20;;;;;;;13.95;7.57;;;;;;;16.26;71.92;100998.63;10216541;28;19923;-61
2022/10/27 22:16:24;;;;;;;13.45;7.05;;;;;;;16.29;71.88;100991.97;10217235;28;20139;-61
2022/10/27 22:21:28;;;;;;;12.70;7.43;;;;;;;16.19;71.52;101001.31;10208861;28;20462;-61
2022/10/27 22:26:29;;;;;;;13.13;6.80;;;;;;;16.09;72.09;100998.06;10214022;29;20472;-61
2022/10/27 22:31:31;;;;;;;12.38;6.55;;;;;;;16.10;71.86;100996.22;10215235;29;20490;-61
2022/10/27 22:36:33;;;;;;;13.80;5.85;;;;;;;16.04;71.74;100989.69;10211445;28;20510;-61
2022/10/27 22:41:34;;;;;;;14.25;6.68;;;;;;;16.00;71.82;100991.97;10204592;28;20069;-61
2022/10/27 22:46:36;;;;;;;12.98;6.68;;;;;;;15.95;71.93;100990.88;10219644;29;20114;-61
2022/10/27 22:51:37;;;;;;;15.43;6.95;;;;;;;15.90;71.85;100998.75;10209571;28;20491;-61
2022/10/27 22:56:38;;;;;;;14.27;7.35;;;;;;;15.77;71.82;100996.75;10210097;28;20146;-61
2022/10/27 23:01:40;;;;;;;15.43;7.00;;;;;;;15.69;72.21;100992.28;10208492;28;20043;-61
2022/10/27 23:06:42;;;;;;;16.13;6.57;;;;;;;15.62;72.21;100994.94;10214205;28;20811;-61
2022/10/27 23:11:45;;;;;;;12.50;6.63;;;;;;;15.63;72.19;100991.16;10206010;29;20142;-61